sensor_id;sensor_type;location;lat;lon;timestamp;pressure;altitude;pressure_sealevel;temperature
25514;BMP180;48128;54.242;10.280;2022-11-21T02:44:17;99956.00;;;-1.30
25514;BMP180;48128;54.242;10.280;2022-11-21T02:46:50;99967.00;;;-1.30
25514;BMP180;48128;54.242;10.280;2022-11-21T02:49:28;99960.00;;;-1.40
25514;BMP180;48128;54.242;10.280;2022-11-21T02:51:56;99961.00;;;-1.40
25514;BMP180;48128;54.242;10.280;2022-11-21T02:54:23;99958.00;;;-1.40
25514;BMP180;48128;54.242;10.280;2022-11-21T02:56:50;99954.00;;;-1.50
25514;BMP180;48128;54.242;10.280;2022-11-21T02:59:16;99944.00;;;-1.50
25514;BMP180;48128;54.242;10.280;2022-11-21T03:01:43;99943.00;;;-1.50
25514;BMP180;48128;54.242;10.280;2022-11-21T03:04:10;99932.00;;;-1.50
25514;BMP180;48128;54.242;10.280;2022-11-21T03:06:37;99951.00;;;-1.60
25514;BMP180;48128;54.242;10.280;2022-11-21T03:09:03;99961.00;;;-1.60
25514;BMP180;48128;54.242;10.280;2022-11-21T03:11:30;99942.00;;;-1.60
25514;BMP180;48128;54.242;10.280;2022-11-21T03:13:57;99952.00;;;-1.60
25514;BMP180;48128;54.242;10.280;2022-11-21T03:16:23;99948.00;;;-1.60
25514;BMP180;48128;54.242;10.280;2022-11-21T03:18:50;99936.00;;;-1.60
25514;BMP180;48128;54.242;10.280;2022-11-21T03:21:17;99935.00;;;-1.60
25514;BMP180;48128;54.242;10.280;2022-11-21T03:23:44;99932.00;;;-1.60
25514;BMP180;48128;54.242;10.280;2022-11-21T03:26:11;99922.00;;;-1.60
25514;BMP180;48128;54.242;10.280;2022-11-21T03:28:37;99933.00;;;-1.60
25514;BMP180;48128;54.242;10.280;2022-11-21T03:31:04;99929.00;;;-1.60
25514;BMP180;48128;54.242;10.280;2022-11-21T03:33:31;99925.00;;;-1.60
25514;BMP180;48128;54.242;10.280;2022-11-21T03:35:57;99924.00;;;-1.60
25514;BMP180;48128;54.242;10.280;2022-11-21T03:38:24;99925.00;;;-1.60
25514;BMP180;48128;54.242;10.280;2022-11-21T03:40:51;99922.00;;;-1.60
25514;BMP180;48128;54.242;10.280;2022-11-21T03:43:17;99931.00;;;-1.50
25514;BMP180;48128;54.242;10.280;2022-11-21T03:45:45;99934.00;;;-1.50
25514;BMP180;48128;54.242;10.280;2022-11-21T03:48:14;99939.00;;;-1.50
25514;BMP180;48128;54.242;10.280;2022-11-21T03:50:42;99942.00;;;-1.50
25514;BMP180;48128;54.242;10.280;2022-11-21T03:53:09;99929.00;;;-1.50
25514;BMP180;48128;54.242;10.280;2022-11-21T03:55:36;99944.00;;;-1.50
25514;BMP180;48128;54.242;10.280;2022-11-21T03:58:03;99945.00;;;-1.50
25514;BMP180;48128;54.242;10.280;2022-11-21T04:00:29;99940.00;;;-1.50
25514;BMP180;48128;54.242;10.280;2022-11-21T04:02:56;99959.00;;;-1.60
25514;BMP180;48128;54.242;10.280;2022-11-21T04:05:23;99955.00;;;-1.60
25514;BMP180;48128;54.242;10.280;2022-11-21T04:07:49;99955.00;;;-1.60
25514;BMP180;48128;54.242;10.280;2022-11-21T04:10:16;99948.00;;;-1.60
25514;BMP180;48128;54.242;10.280;2022-11-21T04:12:43;99952.00;;;-1.60
25514;BMP180;48128;54.242;10.280;2022-11-21T04:15:10;99968.00;;;-1.60
25514;BMP180;48128;54.242;10.280;2022-11-21T04:17:39;99958.00;;;-1.70
25514;BMP180;48128;54.242;10.280;2022-11-21T04:20:06;99959.00;;;-1.70
25514;BMP180;48128;54.242;10.280;2022-11-21T04:22:33;99955.00;;;-1.70
25514;BMP180;48128;54.242;10.280;2022-11-21T04:25:00;99948.00;;;-1.70
25514;BMP180;48128;54.242;10.280;2022-11-21T04:27:26;99961.00;;;-1.70
25514;BMP180;48128;54.242;10.280;2022-11-21T04:29:53;99969.00;;;-1.70
25514;BMP180;48128;54.242;10.280;2022-11-21T04:32:20;99965.00;;;-1.70
25514;BMP180;48128;54.242;10.280;2022-11-21T04:34:46;99966.00;;;-1.70
25514;BMP180;48128;54.242;10.280;2022-11-21T04:37:13;99953.00;;;-1.70
25514;BMP180;48128;54.242;10.280;2022-11-21T04:39:40;99958.00;;;-1.70
25514;BMP180;48128;54.242;10.280;2022-11-21T04:42:07;99956.00;;;-1.70
25514;BMP180;48128;54.242;10.280;2022-11-21T04:44:33;99966.00;;;-1.70
25514;BMP180;48128;54.242;10.280;2022-11-21T04:47:00;99961.00;;;-1.70
25514;BMP180;48128;54.242;10.280;2022-11-21T04:49:31;99964.00;;;-1.70
25514;BMP180;48128;54.242;10.280;2022-11-21T04:51:58;99965.00;;;-1.70
25514;BMP180;48128;54.242;10.280;2022-11-21T04:54:24;99969.00;;;-1.70
25514;BMP180;48128;54.242;10.280;2022-11-21T04:56:51;99964.00;;;-1.70
25514;BMP180;48128;54.242;10.280;2022-11-21T04:59:27;99958.00;;;-1.70
25514;BMP180;48128;54.242;10.280;2022-11-21T05:01:54;99958.00;;;-1.70
25514;BMP180;48128;54.242;10.280;2022-11-21T05:04:20;99952.00;;;-1.70
25514;BMP180;48128;54.242;10.280;2022-11-21T05:06:47;99959.00;;;-1.70
25514;BMP180;48128;54.242;10.280;2022-11-21T05:09:14;99964.00;;;-1.70
25514;BMP180;48128;54.242;10.280;2022-11-21T05:11:40;99964.00;;;-1.70
25514;BMP180;48128;54.242;10.280;2022-11-21T05:14:26;99951.00;;;-1.70
25514;BMP180;48128;54.242;10.280;2022-11-21T05:16:53;99949.00;;;-1.70
25514;BMP180;48128;54.242;10.280;2022-11-21T05:19:19;99946.00;;;-1.70
25514;BMP180;48128;54.242;10.280;2022-11-21T05:21:46;99941.00;;;-1.70
25514;BMP180;48128;54.242;10.280;2022-11-21T05:24:13;99940.00;;;-1.70
25514;BMP180;48128;54.242;10.280;2022-11-21T05:26:40;99953.00;;;-1.70
25514;BMP180;48128;54.242;10.280;2022-11-21T05:29:06;99953.00;;;-1.70
25514;BMP180;48128;54.242;10.280;2022-11-21T05:31:33;99947.00;;;-1.70
25514;BMP180;48128;54.242;10.280;2022-11-21T05:34:00;99949.00;;;-1.70
25514;BMP180;48128;54.242;10.280;2022-11-21T05:36:27;99943.00;;;-1.70
25514;BMP180;48128;54.242;10.280;2022-11-21T05:38:53;99954.00;;;-1.70
25514;BMP180;48128;54.242;10.280;2022-11-21T05:41:20;99947.00;;;-1.70
25514;BMP180;48128;54.242;10.280;2022-11-21T05:43:47;99955.00;;;-1.70
25514;BMP180;48128;54.242;10.280;2022-11-21T05:46:20;99945.00;;;-1.70
25514;BMP180;48128;54.242;10.280;2022-11-21T05:48:47;99945.00;;;-1.70
25514;BMP180;48128;54.242;10.280;2022-11-21T05:51:15;99931.00;;;-1.70
25514;BMP180;48128;54.242;10.280;2022-11-21T05:53:42;99929.00;;;-1.70
25514;BMP180;48128;54.242;10.280;2022-11-21T05:56:11;99938.00;;;-1.70
25514;BMP180;48128;54.242;10.280;2022-11-21T05:58:39;99942.00;;;-1.70
25514;BMP180;48128;54.242;10.280;2022-11-21T06:01:07;99947.00;;;-1.70
25514;BMP180;48128;54.242;10.280;2022-11-21T06:03:36;99944.00;;;-1.70
25514;BMP180;48128;54.242;10.280;2022-11-21T06:06:06;99944.00;;;-1.70
25514;BMP180;48128;54.242;10.280;2022-11-21T06:08:41;99949.00;;;-1.70
25514;BMP180;48128;54.242;10.280;2022-11-21T06:11:10;99945.00;;;-1.70
25514;BMP180;48128;54.242;10.280;2022-11-21T06:13:37;99949.00;;;-1.70
25514;BMP180;48128;54.242;10.280;2022-11-21T06:16:07;99944.00;;;-1.70
25514;BMP180;48128;54.242;10.280;2022-11-21T06:18:36;99941.00;;;-1.70
25514;BMP180;48128;54.242;10.280;2022-11-21T06:21:16;99935.00;;;-1.70
25514;BMP180;48128;54.242;10.280;2022-11-21T06:23:43;99944.00;;;-1.70
25514;BMP180;48128;54.242;10.280;2022-11-21T06:26:12;99941.00;;;-1.70
25514;BMP180;48128;54.242;10.280;2022-11-21T06:28:39;99936.00;;;-1.60
25514;BMP180;48128;54.242;10.280;2022-11-21T06:31:14;99929.00;;;-1.60
25514;BMP180;48128;54.242;10.280;2022-11-21T06:33:42;99944.00;;;-1.60
25514;BMP180;48128;54.242;10.280;2022-11-21T06:36:13;99931.00;;;-1.60
25514;BMP180;48128;54.242;10.280;2022-11-21T06:38:41;99931.00;;;-1.60
25514;BMP180;48128;54.242;10.280;2022-11-21T06:41:16;99943.00;;;-1.60
25514;BMP180;48128;54.242;10.280;2022-11-21T06:43:44;99926.00;;;-1.60
25514;BMP180;48128;54.242;10.280;2022-11-21T06:46:11;99933.00;;;-1.60
25514;BMP180;48128;54.242;10.280;2022-11-21T06:48:39;99926.00;;;-1.60
25514;BMP180;48128;54.242;10.280;2022-11-21T06:51:17;99938.00;;;-1.60
25514;BMP180;48128;54.242;10.280;2022-11-21T06:53:44;99932.00;;;-1.60
25514;BMP180;48128;54.242;10.280;2022-11-21T06:56:11;99929.00;;;-1.60
25514;BMP180;48128;54.242;10.280;2022-11-21T06:58:37;99931.00;;;-1.60
25514;BMP180;48128;54.242;10.280;2022-11-21T07:01:08;99923.00;;;-1.50
25514;BMP180;48128;54.242;10.280;2022-11-21T07:03:36;99929.00;;;-1.50
25514;BMP180;48128;54.242;10.280;2022-11-21T07:06:03;99927.00;;;-1.50
25514;BMP180;48128;54.242;10.280;2022-11-21T07:08:33;99923.00;;;-1.50
25514;BMP180;48128;54.242;10.280;2022-11-21T07:11:06;99924.00;;;-1.50
25514;BMP180;48128;54.242;10.280;2022-11-21T07:13:50;99931.00;;;-1.50
25514;BMP180;48128;54.242;10.280;2022-11-21T07:16:17;99939.00;;;-1.50
25514;BMP180;48128;54.242;10.280;2022-11-21T07:18:44;99917.00;;;-1.50
25514;BMP180;48128;54.242;10.280;2022-11-21T07:21:11;99930.00;;;-1.50
25514;BMP180;48128;54.242;10.280;2022-11-21T07:23:38;99919.00;;;-1.40
25514;BMP180;48128;54.242;10.280;2022-11-21T07:26:06;99919.00;;;-1.40
25514;BMP180;48128;54.242;10.280;2022-11-21T07:28:33;99912.00;;;-1.40
25514;BMP180;48128;54.242;10.280;2022-11-21T07:31:00;99932.00;;;-1.40
25514;BMP180;48128;54.242;10.280;2022-11-21T07:33:35;99925.00;;;-1.30
25514;BMP180;48128;54.242;10.280;2022-11-21T07:36:05;99936.00;;;-1.30
25514;BMP180;48128;54.242;10.280;2022-11-21T07:38:32;99932.00;;;-1.30
25514;BMP180;48128;54.242;10.280;2022-11-21T07:40:59;99929.00;;;-1.20
25514;BMP180;48128;54.242;10.280;2022-11-21T07:43:26;99936.00;;;-1.20
25514;BMP180;48128;54.242;10.280;2022-11-21T07:45:53;99930.00;;;-1.20
25514;BMP180;48128;54.242;10.280;2022-11-21T07:48:19;99924.00;;;-1.10
25514;BMP180;48128;54.242;10.280;2022-11-21T07:50:46;99931.00;;;-1.10
25514;BMP180;48128;54.242;10.280;2022-11-21T07:53:13;99939.00;;;-1.00
25514;BMP180;48128;54.242;10.280;2022-11-21T07:55:40;99931.00;;;-1.00
25514;BMP180;48128;54.242;10.280;2022-11-21T07:58:10;99931.00;;;-0.90
25514;BMP180;48128;54.242;10.280;2022-11-21T08:00:39;99926.00;;;-0.90
25514;BMP180;48128;54.242;10.280;2022-11-21T08:03:09;99929.00;;;-0.80
25514;BMP180;48128;54.242;10.280;2022-11-21T08:05:40;99912.00;;;-0.80
25514;BMP180;48128;54.242;10.280;2022-11-21T08:08:09;99905.00;;;-0.80
25514;BMP180;48128;54.242;10.280;2022-11-21T08:10:40;99901.00;;;-0.70
25514;BMP180;48128;54.242;10.280;2022-11-21T08:13:07;99908.00;;;-0.70
25514;BMP180;48128;54.242;10.280;2022-11-21T08:15:34;99899.00;;;-0.70
25514;BMP180;48128;54.242;10.280;2022-11-21T08:18:19;99913.00;;;-0.60
25514;BMP180;48128;54.242;10.280;2022-11-21T08:20:46;99908.00;;;-0.50
25514;BMP180;48128;54.242;10.280;2022-11-21T08:23:13;99907.00;;;-0.50
25514;BMP180;48128;54.242;10.280;2022-11-21T08:25:40;99916.00;;;-0.40
25514;BMP180;48128;54.242;10.280;2022-11-21T08:28:08;99919.00;;;-0.40
25514;BMP180;48128;54.242;10.280;2022-11-21T08:30:37;99935.00;;;-0.30
25514;BMP180;48128;54.242;10.280;2022-11-21T08:33:05;99935.00;;;-0.30
25514;BMP180;48128;54.242;10.280;2022-11-21T08:35:34;99927.00;;;-0.20
25514;BMP180;48128;54.242;10.280;2022-11-21T08:38:01;99933.00;;;-0.20
25514;BMP180;48128;54.242;10.280;2022-11-21T08:40:29;99920.00;;;-0.20
25514;BMP180;48128;54.242;10.280;2022-11-21T08:43:06;99931.00;;;-0.10
25514;BMP180;48128;54.242;10.280;2022-11-21T08:45:34;99934.00;;;-0.10
25514;BMP180;48128;54.242;10.280;2022-11-21T08:48:01;99941.00;;;0.00
25514;BMP180;48128;54.242;10.280;2022-11-21T08:50:28;99943.00;;;0.00
25514;BMP180;48128;54.242;10.280;2022-11-21T08:52:59;99946.00;;;0.00
25514;BMP180;48128;54.242;10.280;2022-11-21T08:55:27;99954.00;;;0.10
25514;BMP180;48128;54.242;10.280;2022-11-21T08:57:54;99949.00;;;0.10
25514;BMP180;48128;54.242;10.280;2022-11-21T09:00:21;99944.00;;;0.10
25514;BMP180;48128;54.242;10.280;2022-11-21T09:02:48;99949.00;;;0.10
25514;BMP180;48128;54.242;10.280;2022-11-21T09:05:15;99956.00;;;0.10
25514;BMP180;48128;54.242;10.280;2022-11-21T09:07:42;99946.00;;;0.20
25514;BMP180;48128;54.242;10.280;2022-11-21T09:10:09;99946.00;;;0.30
25514;BMP180;48128;54.242;10.280;2022-11-21T09:12:36;99948.00;;;0.30
25514;BMP180;48128;54.242;10.280;2022-11-21T09:15:03;99954.00;;;0.30
25514;BMP180;48128;54.242;10.280;2022-11-21T09:17:49;99957.00;;;0.30
25514;BMP180;48128;54.242;10.280;2022-11-21T09:20:39;99957.00;;;0.30
25514;BMP180;48128;54.242;10.280;2022-11-21T09:23:08;99960.00;;;0.30
25514;BMP180;48128;54.242;10.280;2022-11-21T09:25:35;99963.00;;;0.30
25514;BMP180;48128;54.242;10.280;2022-11-21T09:28:03;99951.00;;;0.40
25514;BMP180;48128;54.242;10.280;2022-11-21T09:30:30;99949.00;;;0.50
25514;BMP180;48128;54.242;10.280;2022-11-21T09:33:05;99942.00;;;0.50
25514;BMP180;48128;54.242;10.280;2022-11-21T09:35:33;99956.00;;;0.60
25514;BMP180;48128;54.242;10.280;2022-11-21T09:38:00;99968.00;;;0.60
25514;BMP180;48128;54.242;10.280;2022-11-21T09:40:30;99963.00;;;0.60
25514;BMP180;48128;54.242;10.280;2022-11-21T09:48:12;99968.00;;;0.80
25514;BMP180;48128;54.242;10.280;2022-11-21T09:50:52;99966.00;;;0.80
25514;BMP180;48128;54.242;10.280;2022-11-21T09:53:22;99972.00;;;0.80
25514;BMP180;48128;54.242;10.280;2022-11-21T09:55:58;99970.00;;;0.90
25514;BMP180;48128;54.242;10.280;2022-11-21T09:58:38;99981.00;;;0.90
25514;BMP180;48128;54.242;10.280;2022-11-21T10:01:10;99968.00;;;0.90
25514;BMP180;48128;54.242;10.280;2022-11-21T10:03:56;99990.00;;;0.90
25514;BMP180;48128;54.242;10.280;2022-11-21T10:06:24;99968.00;;;0.90
25514;BMP180;48128;54.242;10.280;2022-11-21T10:09:13;99969.00;;;0.90
25514;BMP180;48128;54.242;10.280;2022-11-21T10:17:14;99956.00;;;1.00
25514;BMP180;48128;54.242;10.280;2022-11-21T10:20:03;99951.00;;;1.10
25514;BMP180;48128;54.242;10.280;2022-11-21T10:25:23;99945.00;;;1.20
25514;BMP180;48128;54.242;10.280;2022-11-21T10:28:00;99950.00;;;1.20
25514;BMP180;48128;54.242;10.280;2022-11-21T10:30:27;99939.00;;;1.20
25514;BMP180;48128;54.242;10.280;2022-11-21T10:33:00;99933.00;;;1.30
25514;BMP180;48128;54.242;10.280;2022-11-21T10:35:46;99933.00;;;1.30
25514;BMP180;48128;54.242;10.280;2022-11-21T10:38:25;99928.00;;;1.30
25514;BMP180;48128;54.242;10.280;2022-11-21T10:41:04;99917.00;;;1.30
25514;BMP180;48128;54.242;10.280;2022-11-21T10:46:57;99922.00;;;1.30
25514;BMP180;48128;54.242;10.280;2022-11-21T10:49:24;99925.00;;;1.30
25514;BMP180;48128;54.242;10.280;2022-11-21T10:52:13;99927.00;;;1.30
25514;BMP180;48128;54.242;10.280;2022-11-21T11:02:41;99908.00;;;1.40
25514;BMP180;48128;54.242;10.280;2022-11-21T11:07:41;99929.00;;;1.50
25514;BMP180;48128;54.242;10.280;2022-11-21T11:12:53;99915.00;;;1.70
25514;BMP180;48128;54.242;10.280;2022-11-21T11:21:22;99923.00;;;1.80
25514;BMP180;48128;54.242;10.280;2022-11-21T11:23:51;99933.00;;;1.90
25514;BMP180;48128;54.242;10.280;2022-11-21T11:26:29;99927.00;;;2.00
25514;BMP180;48128;54.242;10.280;2022-11-21T11:29:12;99941.00;;;2.00
25514;BMP180;48128;54.242;10.280;2022-11-21T11:34:12;99945.00;;;2.10
25514;BMP180;48128;54.242;10.280;2022-11-21T11:37:05;99943.00;;;2.10
25514;BMP180;48128;54.242;10.280;2022-11-21T11:39:40;99940.00;;;2.20
25514;BMP180;48128;54.242;10.280;2022-11-21T11:42:19;99935.00;;;2.20
25514;BMP180;48128;54.242;10.280;2022-11-21T11:48:08;99930.00;;;2.20
25514;BMP180;48128;54.242;10.280;2022-11-21T11:50:42;99921.00;;;2.20
25514;BMP180;48128;54.242;10.280;2022-11-21T11:55:48;99922.00;;;2.30
25514;BMP180;48128;54.242;10.280;2022-11-21T12:01:06;99915.00;;;2.30
25514;BMP180;48128;54.242;10.280;2022-11-21T12:06:32;99914.00;;;2.20
25514;BMP180;48128;54.242;10.280;2022-11-21T12:12:06;99931.00;;;2.30
25514;BMP180;48128;54.242;10.280;2022-11-21T12:17:48;99918.00;;;2.30
25514;BMP180;48128;54.242;10.280;2022-11-21T12:23:05;99926.00;;;2.30
25514;BMP180;48128;54.242;10.280;2022-11-21T12:25:37;99898.00;;;2.30
25514;BMP180;48128;54.242;10.280;2022-11-21T12:28:13;99887.00;;;2.30
25514;BMP180;48128;54.242;10.280;2022-11-21T12:31:01;99886.00;;;2.30
25514;BMP180;48128;54.242;10.280;2022-11-21T12:33:33;99885.00;;;2.30
25514;BMP180;48128;54.242;10.280;2022-11-21T12:36:16;99882.00;;;2.20
25514;BMP180;48128;54.242;10.280;2022-11-21T12:42:10;99890.00;;;2.10
25514;BMP180;48128;54.242;10.280;2022-11-21T12:45:05;99872.00;;;2.10
25514;BMP180;48128;54.242;10.280;2022-11-21T12:54:28;99869.00;;;2.00
25514;BMP180;48128;54.242;10.280;2022-11-21T12:57:07;99849.00;;;2.00
25514;BMP180;48128;54.242;10.280;2022-11-21T13:05:23;99830.00;;;2.10
25514;BMP180;48128;54.242;10.280;2022-11-21T13:08:00;99841.00;;;2.00
25514;BMP180;48128;54.242;10.280;2022-11-21T13:10:28;99830.00;;;2.00
25514;BMP180;48128;54.242;10.280;2022-11-21T13:13:13;99841.00;;;2.00
25514;BMP180;48128;54.242;10.280;2022-11-21T13:27:35;99798.00;;;1.90
25514;BMP180;48128;54.242;10.280;2022-11-21T13:32:55;99781.00;;;1.90
25514;BMP180;48128;54.242;10.280;2022-11-21T13:45:59;99774.00;;;1.70
25514;BMP180;48128;54.242;10.280;2022-11-21T13:54:28;99758.00;;;1.70
25514;BMP180;48128;54.242;10.280;2022-11-21T14:17:58;99766.00;;;1.40
25514;BMP180;48128;54.242;10.280;2022-11-21T14:25:34;99763.00;;;1.40
25514;BMP180;48128;54.242;10.280;2022-11-21T14:28:03;99762.00;;;1.40
25514;BMP180;48128;54.242;10.280;2022-11-21T14:30:34;99755.00;;;1.30
25514;BMP180;48128;54.242;10.280;2022-11-21T14:36:01;99758.00;;;1.30
25514;BMP180;48128;54.242;10.280;2022-11-21T14:38:32;99754.00;;;1.20
25514;BMP180;48128;54.242;10.280;2022-11-21T14:41:53;99753.00;;;1.10
25514;BMP180;48128;54.242;10.280;2022-11-21T14:44:21;99762.00;;;1.10
25514;BMP180;48128;54.242;10.280;2022-11-21T14:47:17;99764.00;;;1.10
25514;BMP180;48128;54.242;10.280;2022-11-21T14:49:54;99744.00;;;1.00
25514;BMP180;48128;54.242;10.280;2022-11-21T14:52:26;99736.00;;;1.00
25514;BMP180;48128;54.242;10.280;2022-11-21T14:55:03;99741.00;;;0.90
25514;BMP180;48128;54.242;10.280;2022-11-21T14:57:51;99736.00;;;0.90
25514;BMP180;48128;54.242;10.280;2022-11-21T15:00:20;99741.00;;;0.90
25514;BMP180;48128;54.242;10.280;2022-11-21T15:03:21;99732.00;;;0.80
25514;BMP180;48128;54.242;10.280;2022-11-21T15:05:58;99733.00;;;0.80
25514;BMP180;48128;54.242;10.280;2022-11-21T15:08:32;99737.00;;;0.80
25514;BMP180;48128;54.242;10.280;2022-11-21T15:11:19;99732.00;;;0.70
25514;BMP180;48128;54.242;10.280;2022-11-21T15:13:49;99726.00;;;0.70
25514;BMP180;48128;54.242;10.280;2022-11-21T15:16:38;99717.00;;;0.60
25514;BMP180;48128;54.242;10.280;2022-11-21T15:19:10;99717.00;;;0.60
25514;BMP180;48128;54.242;10.280;2022-11-21T15:21:43;99710.00;;;0.60
25514;BMP180;48128;54.242;10.280;2022-11-21T15:24:16;99720.00;;;0.50
25514;BMP180;48128;54.242;10.280;2022-11-21T15:26:44;99717.00;;;0.50
25514;BMP180;48128;54.242;10.280;2022-11-21T15:29:18;99715.00;;;0.50
25514;BMP180;48128;54.242;10.280;2022-11-21T15:32:07;99702.00;;;0.40
25514;BMP180;48128;54.242;10.280;2022-11-21T15:34:39;99714.00;;;0.40
25514;BMP180;48128;54.242;10.280;2022-11-21T15:37:16;99692.00;;;0.40
25514;BMP180;48128;54.242;10.280;2022-11-21T15:39:47;99698.00;;;0.40
25514;BMP180;48128;54.242;10.280;2022-11-21T15:42:34;99710.00;;;0.40
25514;BMP180;48128;54.242;10.280;2022-11-21T15:47:46;99714.00;;;0.40
25514;BMP180;48128;54.242;10.280;2022-11-21T15:50:14;99708.00;;;0.40
25514;BMP180;48128;54.242;10.280;2022-11-21T15:52:46;99702.00;;;0.40
25514;BMP180;48128;54.242;10.280;2022-11-21T15:55:20;99699.00;;;0.40
25514;BMP180;48128;54.242;10.280;2022-11-21T15:57:47;99694.00;;;0.40
25514;BMP180;48128;54.242;10.280;2022-11-21T16:00:15;99704.00;;;0.40
25514;BMP180;48128;54.242;10.280;2022-11-21T16:02:42;99710.00;;;0.40
25514;BMP180;48128;54.242;10.280;2022-11-21T16:05:13;99703.00;;;0.40
25514;BMP180;48128;54.242;10.280;2022-11-21T16:07:43;99711.00;;;0.40
25514;BMP180;48128;54.242;10.280;2022-11-21T16:10:10;99716.00;;;0.40
25514;BMP180;48128;54.242;10.280;2022-11-21T16:12:49;99709.00;;;0.40
25514;BMP180;48128;54.242;10.280;2022-11-21T16:15:16;99701.00;;;0.40
25514;BMP180;48128;54.242;10.280;2022-11-21T16:17:43;99707.00;;;0.40
25514;BMP180;48128;54.242;10.280;2022-11-21T16:20:12;99705.00;;;0.40
25514;BMP180;48128;54.242;10.280;2022-11-21T16:22:39;99705.00;;;0.40
25514;BMP180;48128;54.242;10.280;2022-11-21T16:25:12;99703.00;;;0.40
25514;BMP180;48128;54.242;10.280;2022-11-21T16:27:39;99693.00;;;0.30
25514;BMP180;48128;54.242;10.280;2022-11-21T16:30:06;99695.00;;;0.20
25514;BMP180;48128;54.242;10.280;2022-11-21T16:32:33;99677.00;;;0.20
25514;BMP180;48128;54.242;10.280;2022-11-21T16:35:00;99665.00;;;0.10
25514;BMP180;48128;54.242;10.280;2022-11-21T16:37:27;99661.00;;;0.00
25514;BMP180;48128;54.242;10.280;2022-11-21T16:39:56;99656.00;;;0.00
25514;BMP180;48128;54.242;10.280;2022-11-21T16:42:23;99642.00;;;0.00
25514;BMP180;48128;54.242;10.280;2022-11-21T16:44:51;99640.00;;;-0.10
25514;BMP180;48128;54.242;10.280;2022-11-21T16:47:18;99644.00;;;0.00
25514;BMP180;48128;54.242;10.280;2022-11-21T16:49:45;99646.00;;;-0.10
25514;BMP180;48128;54.242;10.280;2022-11-21T16:52:14;99635.00;;;-0.10
25514;BMP180;48128;54.242;10.280;2022-11-21T16:54:43;99638.00;;;-0.10
25514;BMP180;48128;54.242;10.280;2022-11-21T16:57:10;99637.00;;;-0.20
25514;BMP180;48128;54.242;10.280;2022-11-21T16:59:37;99652.00;;;-0.20
25514;BMP180;48128;54.242;10.280;2022-11-21T17:02:04;99646.00;;;-0.20
25514;BMP180;48128;54.242;10.280;2022-11-21T17:04:31;99654.00;;;-0.20
25514;BMP180;48128;54.242;10.280;2022-11-21T17:06:59;99648.00;;;-0.20
25514;BMP180;48128;54.242;10.280;2022-11-21T17:09:26;99640.00;;;-0.20
25514;BMP180;48128;54.242;10.280;2022-11-21T17:11:56;99644.00;;;-0.30
25514;BMP180;48128;54.242;10.280;2022-11-21T17:14:23;99630.00;;;-0.30
25514;BMP180;48128;54.242;10.280;2022-11-21T17:16:50;99625.00;;;-0.30
25514;BMP180;48128;54.242;10.280;2022-11-21T17:19:17;99631.00;;;-0.30
25514;BMP180;48128;54.242;10.280;2022-11-21T17:21:43;99640.00;;;-0.30
25514;BMP180;48128;54.242;10.280;2022-11-21T17:24:13;99628.00;;;-0.30
25514;BMP180;48128;54.242;10.280;2022-11-21T17:26:40;99630.00;;;-0.40
25514;BMP180;48128;54.242;10.280;2022-11-21T17:29:08;99650.00;;;-0.40
25514;BMP180;48128;54.242;10.280;2022-11-21T17:31:35;99636.00;;;-0.40
25514;BMP180;48128;54.242;10.280;2022-11-21T17:34:01;99642.00;;;-0.40
25514;BMP180;48128;54.242;10.280;2022-11-21T17:36:29;99646.00;;;-0.40
25514;BMP180;48128;54.242;10.280;2022-11-21T17:38:56;99639.00;;;-0.40
25514;BMP180;48128;54.242;10.280;2022-11-21T17:41:24;99654.00;;;-0.40
25514;BMP180;48128;54.242;10.280;2022-11-21T17:43:55;99656.00;;;-0.40
25514;BMP180;48128;54.242;10.280;2022-11-21T17:46:23;99644.00;;;-0.40
25514;BMP180;48128;54.242;10.280;2022-11-21T17:48:55;99649.00;;;-0.40
25514;BMP180;48128;54.242;10.280;2022-11-21T17:51:27;99648.00;;;-0.40
25514;BMP180;48128;54.242;10.280;2022-11-21T17:53:55;99647.00;;;-0.40
25514;BMP180;48128;54.242;10.280;2022-11-21T17:56:24;99654.00;;;-0.50
25514;BMP180;48128;54.242;10.280;2022-11-21T17:58:51;99657.00;;;-0.50
25514;BMP180;48128;54.242;10.280;2022-11-21T18:01:18;99659.00;;;-0.50
25514;BMP180;48128;54.242;10.280;2022-11-21T18:03:56;99672.00;;;-0.50
25514;BMP180;48128;54.242;10.280;2022-11-21T18:06:25;99654.00;;;-0.60
25514;BMP180;48128;54.242;10.280;2022-11-21T18:08:54;99660.00;;;-0.60
25514;BMP180;48128;54.242;10.280;2022-11-21T18:11:21;99663.00;;;-0.70
25514;BMP180;48128;54.242;10.280;2022-11-21T18:13:49;99653.00;;;-0.70
25514;BMP180;48128;54.242;10.280;2022-11-21T18:16:18;99643.00;;;-0.70
25514;BMP180;48128;54.242;10.280;2022-11-21T18:19:06;99653.00;;;-0.70
25514;BMP180;48128;54.242;10.280;2022-11-21T18:21:34;99641.00;;;-0.80
25514;BMP180;48128;54.242;10.280;2022-11-21T18:24:03;99648.00;;;-0.80
25514;BMP180;48128;54.242;10.280;2022-11-21T18:26:32;99638.00;;;-0.80
25514;BMP180;48128;54.242;10.280;2022-11-21T18:29:00;99646.00;;;-0.80
25514;BMP180;48128;54.242;10.280;2022-11-21T18:31:48;99658.00;;;-0.80
25514;BMP180;48128;54.242;10.280;2022-11-21T18:34:14;99650.00;;;-0.80
25514;BMP180;48128;54.242;10.280;2022-11-21T18:36:41;99651.00;;;-0.80
25514;BMP180;48128;54.242;10.280;2022-11-21T18:39:08;99650.00;;;-0.80
25514;BMP180;48128;54.242;10.280;2022-11-21T18:41:41;99654.00;;;-0.80
25514;BMP180;48128;54.242;10.280;2022-11-21T18:44:08;99656.00;;;-0.80
25514;BMP180;48128;54.242;10.280;2022-11-21T18:46:36;99654.00;;;-0.90
25514;BMP180;48128;54.242;10.280;2022-11-21T18:49:03;99646.00;;;-0.90
25514;BMP180;48128;54.242;10.280;2022-11-21T18:51:33;99640.00;;;-0.90
25514;BMP180;48128;54.242;10.280;2022-11-21T18:54:05;99635.00;;;-0.90
25514;BMP180;48128;54.242;10.280;2022-11-21T18:56:35;99643.00;;;-0.90
25514;BMP180;48128;54.242;10.280;2022-11-21T18:59:02;99635.00;;;-0.90
25514;BMP180;48128;54.242;10.280;2022-11-21T19:01:31;99644.00;;;-0.90
25514;BMP180;48128;54.242;10.280;2022-11-21T19:03:59;99648.00;;;-1.00
25514;BMP180;48128;54.242;10.280;2022-11-21T19:06:26;99643.00;;;-1.00
25514;BMP180;48128;54.242;10.280;2022-11-21T19:08:54;99656.00;;;-1.10
25514;BMP180;48128;54.242;10.280;2022-11-21T19:11:25;99636.00;;;-1.10
25514;BMP180;48128;54.242;10.280;2022-11-21T19:13:52;99639.00;;;-1.20
25514;BMP180;48128;54.242;10.280;2022-11-21T19:16:21;99630.00;;;-1.20
25514;BMP180;48128;54.242;10.280;2022-11-21T19:18:51;99635.00;;;-1.20
25514;BMP180;48128;54.242;10.280;2022-11-21T19:21:42;99631.00;;;-1.20